Data for 01/08/2007

Time Sea-Level Adjusted Pressure Absolute Pressure Temperature Relative Humidity Dew Point   
(mb) (inHg) (mb) (inHg) (C) (F) (%) (C) (F)
00:05 1016 30 846 24.98 4.4 39.9 47 -5.9 21.4
00:10 1016 30 846 24.98 4.3 39.8 48 -5.8 21.5
00:15 1016 30 845 24.95 4.3 39.7 46 -6.2 20.8
00:20 1016 30 845 24.95 4.4 39.9 47 -6 21.2
00:25 1016 30 845 24.95 4.4 40 46 -6.1 20.9
00:30 1016 30 845 24.95 4.4 39.9 48 -5.8 21.6
00:35 1016 30 845 24.95 4.2 39.6 47 -6.1 21
00:40 1016 30 845 24.95 4.3 39.7 48 -5.7 21.7
00:45 1016 30 845 24.95 4.1 39.4 47 -6.2 20.9
00:50 1016 30 845 24.95 4.3 39.7 47 -6.2 20.9
00:55 1016 30 845 24.95 4.2 39.6 47 -6.1 21.1
01:00 1016 30 845 24.95 4.2 39.6 47 -6.1 21
01:05 1016 30 845 24.95 4.3 39.7 49 -5.6 21.9
01:10 1016 30 845 24.95 4.2 39.6 47 -6 21.2
01:15 1016 30 846 24.98 4.3 39.8 48 -5.6 21.8
01:20 1017 30.03 846 24.98 4.3 39.7 48 -5.8 21.6
01:25 1017 30.03 846 24.98 4.4 39.9 48 -5.7 21.7
01:30 1017 30.03 846 24.98 4.6 40.2 48 -5.6 22
01:35 1017 30.03 846 24.98 4.4 39.9 48 -5.6 21.9
01:40 1017 30.03 846 24.98 4.5 40 49 -5.4 22.3
01:45 1017 30.03 846 24.98 4.5 40 48 -5.5 22.1
01:50 1017 30.03 846 24.98 4.6 40.3 46 -5.9 21.4
01:55 1017 30.03 846 24.98 4.7 40.4 49 -5.1 22.7
02:00 1017 30.03 846 24.98 4.8 40.6 46 -5.8 21.6
02:05 1018 30.06 847 25.01 4.6 40.4 49 -5.1 22.8
02:10 1018 30.06 847 25.01 4.4 39.9 50 -5.2 22.6
02:15 1018 30.06 847 25.01 4.4 39.8 49 -5.4 22.4
02:20 1018 30.06 847 25.01 4.3 39.7 48 -5.7 21.8
02:25 1018 30.06 847 25.01 4.3 39.7 48 -5.9 21.4
02:30 1018 30.06 847 25.01 4.4 40 47 -6 21.3
02:35 1018 30.06 847 25.01 4.5 40.1 47 -6 21.3
02:40 1018 30.06 848 25.04 4.4 40 48 -5.7 21.8
02:45 1019 30.09 848 25.04 4.2 39.6 50 -5.3 22.5
02:50 1019 30.09 848 25.04 4 39.3 50 -5.4 22.3
02:55 1019 30.09 848 25.04 4 39.3 50 -5.5 22.2
03:00 1019 30.09 848 25.04 4.2 39.5 47 -6.1 21.1
03:05 1019 30.09 848 25.04 4.5 40.2 46 -6.1 20.9
03:10 1019 30.09 848 25.04 4.6 40.3 46 -5.9 21.4
03:15 1019 30.09 848 25.04 4.6 40.2 46 -5.9 21.3
03:20 1019 30.09 849 25.07 4.5 40.2 47 -5.9 21.3
03:25 1019 30.09 849 25.07 4.5 40.2 47 -5.8 21.5
03:30 1020 30.12 849 25.07 4.5 40 47 -5.8 21.6
03:35 1020 30.12 849 25.07 4.4 39.9 48 -5.7 21.7
03:40 1020 30.12 849 25.07 4.2 39.6 49 -5.6 21.9
03:45 1020 30.12 849 25.07 4.1 39.5 49 -5.7 21.7
03:50 1020 30.12 849 25.07 4 39.2 49 -5.7 21.8
03:55 1020 30.12 849 25.07 4 39.2 49 -5.7 21.8
04:00 1020 30.12 849 25.07 4 39.2 49 -5.8 21.6
04:05 1020 30.12 849 25.07 4 39.2 49 -5.7 21.7
04:10 1020 30.12 849 25.07 4 39.2 50 -5.6 22
04:15 1020 30.12 849 25.07 4 39.2 49 -5.7 21.8
04:20 1020 30.12 850 25.1 4 39.2 50 -5.6 22
04:25 1021 30.15 850 25.1 3.9 39 50 -5.6 22
04:30 1021 30.15 850 25.1 3.8 38.8 51 -5.4 22.3
04:35 1021 30.15 850 25.1 3.7 38.7 51 -5.5 22.1
04:40 1021 30.15 850 25.1 3.6 38.6 52 -5.3 22.5
04:45 1021 30.15 850 25.1 3.5 38.4 52 -5.3 22.4
04:50 1021 30.15 850 25.1 3.4 38.2 53 -5.3 22.5
04:55 1021 30.15 850 25.1 3.3 37.9 52 -5.5 22.1
05:00 1021 30.15 850 25.1 3.2 37.8 53 -5.5 22.1
05:05 1021 30.15 850 25.1 3.1 37.6 54 -5.3 22.4
05:10 1021 30.15 850 25.1 2.9 37.2 53 -5.8 21.6
05:15 1021 30.15 850 25.1 3.1 37.5 52 -5.8 21.5
05:20 1021 30.15 850 25.1 3.2 37.7 51 -5.9 21.3
05:25 1021 30.15 850 25.1 3.2 37.8 51 -6.1 21.1
05:30 1021 30.15 850 25.1 3.2 37.8 52 -5.8 21.6
05:35 1021 30.15 850 25.1 3 37.4 53 -5.6 21.9
05:40 1021 30.15 850 25.1 2.9 37.2 53 -5.6 21.8
05:45 1021 30.15 850 25.1 2.9 37.2 54 -5.5 22
05:50 1021 30.15 850 25.1 2.8 37.1 54 -5.5 22.1
05:55 1021 30.15 850 25.1 2.7 36.9 55 -5.4 22.3
06:00 1021 30.15 851 25.13 2.7 36.9 55 -5.4 22.2
06:05 1021 30.15 851 25.13 2.8 37 54 -5.5 22
06:10 1022 30.18 851 25.13 2.7 36.9 55 -5.5 22.1
06:15 1022 30.18 851 25.13 2.7 36.8 51 -6.4 20.6
06:20 1022 30.18 851 25.13 3.2 37.7 51 -6 21.2
06:25 1022 30.18 852 25.16 3 37.5 52 -5.9 21.4
06:30 1023 30.21 852 25.16 2.9 37.3 52 -6 21.2
06:35 1023 30.21 852 25.16 3 37.3 50 -6.4 20.5
06:40 1023 30.21 852 25.16 3.1 37.6 50 -6.2 20.8
06:45 1023 30.21 852 25.16 3.2 37.8 49 -6.4 20.5
06:50 1023 30.21 852 25.16 3.3 38 49 -6.3 20.7
06:55 1023 30.21 852 25.16 3.3 38 50 -6.3 20.7
07:00 1023 30.21 852 25.16 3.3 37.9 48 -6.6 20.1
07:05 1023 30.21 853 25.19 3.4 38.1 48 -6.5 20.2
07:10 1024 30.24 853 25.19 3.4 38.2 48 -6.5 20.3
07:15 1024 30.24 853 25.19 3.5 38.3 48 -6.6 20.1
07:20 1024 30.24 853 25.19 3.5 38.3 48 -6.5 20.3
07:25 1024 30.24 853 25.19 3.5 38.3 49 -6.2 20.8
07:30 1024 30.24 853 25.19 3.4 38.2 49 -6.3 20.7
07:35 1024 30.24 853 25.19 3.4 38 50 -6.1 21
07:40 1024 30.24 853 25.19 3.3 38 50 -6.1 21
07:45 1024 30.24 854 25.22 3.2 37.8 50 -6.3 20.7
07:50 1024 30.24 854 25.22 3.2 37.8 49 -6.5 20.3
07:55 1024 30.24 854 25.22 3.2 37.8 49 -6.5 20.3
08:00 1024 30.24 854 25.22 3.1 37.6 51 -6.1 21
08:05 1024 30.24 853 25.19 3 37.3 52 -6.1 21.1
08:10 1024 30.24 853 25.19 2.8 37 52 -6.1 21
08:15 1024 30.24 853 25.19 2.8 37 52 -6.1 21.1
08:20 1024 30.24 854 25.22 2.7 36.9 51 -6.4 20.6
08:25 1024 30.24 854 25.22 2.8 37 52 -6.2 20.8
08:30 1025 30.27 854 25.22 2.7 36.9 51 -6.4 20.5
08:35 1025 30.27 854 25.22 2.7 36.9 51 -6.4 20.5
08:40 1025 30.27 854 25.22 2.8 37 50 -6.6 20.2
08:45 1025 30.27 854 25.22 2.8 37.1 50 -6.5 20.3
08:50 1025 30.27 854 25.22 2.9 37.3 48 -6.9 19.5
08:55 1025 30.27 854 25.22 3.3 38 48 -6.7 20
09:00 1025 30.27 855 25.25 3.6 38.6 48 -6.4 20.4
09:05 1026 30.3 855 25.25 3.6 38.4 49 -6.2 20.8
09:10 1026 30.3 855 25.25 3.3 38 49 -6.4 20.5
09:15 1026 30.3 855 25.25 3.3 37.9 48 -6.6 20.1
09:20 1026 30.3 855 25.25 3.3 38 49 -6.5 20.3
09:25 1026 30.3 855 25.25 3.2 37.8 49 -6.5 20.2
09:30 1026 30.3 855 25.25 3.2 37.8 49 -6.5 20.4
09:35 1026 30.3 855 25.25 3.3 38 49 -6.3 20.6
09:40 1026 30.3 855 25.25 3.7 38.6 48 -6.2 20.8
09:45 1026 30.3 856 25.28 4.2 39.6 47 -6.1 21
09:50 1027 30.33 856 25.28 4.6 40.2 46 -6.2 20.9
09:55 1027 30.33 856 25.28 4.3 39.8 46 -6.2 20.8
10:00 1027 30.33 856 25.28 4.2 39.5 45 -6.6 20
10:05 1027 30.33 856 25.28 4.1 39.4 46 -6.5 20.2
10:10 1027 30.33 856 25.28 4.2 39.6 47 -6.2 20.8
10:15 1027 30.33 856 25.28 3.4 38.1 48 -6.6 20.1
10:20 1027 30.33 856 25.28 3.5 38.4 46 -6.9 19.5
10:25 1027 30.33 857 25.31 3.4 38.2 47 -6.7 19.9
10:30 1027 30.33 857 25.31 3.4 38.1 47 -6.9 19.6
10:35 1027 30.33 857 25.31 3.2 37.8 49 -6.5 20.3
10:40 1027 30.33 857 25.31 3.2 37.8 49 -6.4 20.5
10:45 1027 30.33 857 25.31 3.2 37.7 50 -6.3 20.6
10:50 1028 30.36 857 25.31 3.2 37.7 51 -6 21.2
10:55 1028 30.36 857 25.31 3.2 37.7 51 -6 21.1
11:00 1028 30.36 857 25.31 3.2 37.7 50 -6.3 20.7
11:05 1028 30.36 857 25.31 3.2 37.8 49 -6.5 20.2
11:10 1028 30.36 857 25.31 3.3 37.9 50 -6.2 20.8
11:15 1028 30.36 857 25.31 3.3 37.9 49 -6.5 20.4
11:20 1028 30.36 857 25.31 3.2 37.8 48 -6.6 20
11:25 1028 30.36 857 25.31 3.3 37.9 48 -6.7 19.9
11:30 1028 30.36 857 25.31 3.3 38 47 -6.8 19.7
11:35 1028 30.36 857 25.31 3.4 38.2 47 -6.9 19.7
11:40 1028 30.36 857 25.31 3.5 38.3 46 -7 19.3
11:45 1028 30.36 857 25.31 3.6 38.5 46 -6.9 19.6
11:50 1028 30.36 857 25.31 3.7 38.6 46 -6.8 19.8
11:55 1028 30.36 857 25.31 3.6 38.6 46 -6.8 19.7
12:00 1028 30.36 857 25.31 3.7 38.7 46 -6.9 19.6
12:05 1028 30.36 857 25.31 3.8 38.9 45 -7 19.5
12:10 1028 30.36 857 25.31 4.1 39.3 45 -6.9 19.6
12:15 1028 30.36 857 25.31 4.3 39.7 44 -6.8 19.8
12:20 1028 30.36 857 25.31 4.3 39.7 45 -6.7 19.9
12:25 1028 30.36 857 25.31 4.3 39.7 45 -6.7 20
12:30 1028 30.36 857 25.31 4.2 39.6 45 -6.5 20.2
12:35 1028 30.36 857 25.31 4.6 40.4 43 -7 19.4
12:40 1028 30.36 857 25.31 5.3 41.5 41 -6.8 19.7
12:45 1028 30.36 857 25.31 5.3 41.5 42 -6.5 20.4
12:50 1028 30.36 857 25.31 5.5 42 41 -6.8 19.8
12:55 1028 30.36 857 25.31 6 42.7 41 -6.3 20.7
13:00 1028 30.36 857 25.31 5.1 41.2 40 -7.3 18.8
13:05 1028 30.36 857 25.31 4.6 40.3 41 -7.5 18.5
13:10 1028 30.36 857 25.31 4.5 40.1 41 -7.5 18.5
13:15 1028 30.36 857 25.31 4.6 40.2 41 -7.6 18.2
13:20 1028 30.36 857 25.31 4.4 39.9 42 -7.5 18.4
13:25 1028 30.36 857 25.31 4.2 39.6 41 -7.8 17.9
13:30 1028 30.36 857 25.31 4.1 39.3 41 -8 17.6
13:35 1028 30.36 857 25.31 4.2 39.5 42 -7.7 18.1
13:40 1028 30.36 857 25.31 4.2 39.5 42 -7.6 18.3
13:45 1028 30.36 857 25.31 4 39.2 43 -7.5 18.5
13:50 1028 30.36 857 25.31 4 39.2 42 -7.7 18.1
13:55 1028 30.36 857 25.31 3.9 38.9 42 -8 17.6
14:00 1028 30.36 857 25.31 3.8 38.9 42 -7.8 17.9
14:05 1028 30.36 857 25.31 3.7 38.7 42 -8 17.6
14:10 1028 30.36 857 25.31 3.6 38.6 43 -7.9 17.7
14:15 1028 30.36 857 25.31 3.7 38.6 43 -7.8 18
14:20 1028 30.36 857 25.31 3.6 38.5 43 -7.8 18
14:25 1028 30.36 857 25.31 3.6 38.4 43 -7.8 17.9
14:30 1028 30.36 857 25.31 3.5 38.2 43 -7.9 17.7
14:35 1028 30.36 857 25.31 3.4 38.1 45 -7.6 18.4
14:40 1028 30.36 857 25.31 3.4 38.1 46 -7.1 19.2
14:45 1028 30.36 857 25.31 3.4 38.2 47 -6.9 19.6
14:50 1028 30.36 857 25.31 3.5 38.2 46 -7.1 19.2
14:55 1028 30.36 857 25.31 3.5 38.3 47 -6.9 19.5
15:00 1028 30.36 857 25.31 3.5 38.4 44 -7.5 18.5
15:05 1028 30.36 857 25.31 3.5 38.3 44 -7.7 18.2
15:10 1028 30.36 857 25.31 3.5 38.4 44 -7.6 18.4
15:15 1028 30.36 857 25.31 3.6 38.4 44 -7.7 18.2
15:20 1028 30.36 857 25.31 3.5 38.4 45 -7.3 18.9
15:25 1028 30.36 858 25.34 3.5 38.3 44 -7.5 18.5
15:30 1028 30.36 858 25.34 3.4 38.2 44 -7.6 18.4
15:35 1028 30.36 858 25.34 3.4 38.2 45 -7.4 18.6
15:40 1028 30.36 857 25.31 3.4 38.2 45 -7.5 18.4
15:45 1028 30.36 858 25.34 3.4 38.1 46 -7.3 18.9
15:50 1028 30.36 858 25.34 3.3 38 46 -7.3 18.8
15:55 1028 30.36 858 25.34 3.2 37.8 48 -6.9 19.6
16:00 1028 30.36 858 25.34 3.1 37.6 47 -7.3 18.9
16:05 1028 30.36 858 25.34 3 37.4 48 -6.9 19.6
16:10 1029 30.39 858 25.34 3 37.4 47 -7.1 19.3
16:15 1028 30.36 858 25.34 3 37.4 47 -7.2 19.1
16:20 1029 30.39 858 25.34 3 37.5 47 -7.2 19.1
16:25 1029 30.39 858 25.34 3.1 37.7 47 -7.1 19.2
16:30 1029 30.39 858 25.34 3.2 37.7 47 -7.2 19.1
16:35 1029 30.39 858 25.34 3.1 37.6 47 -7.2 19.1
16:40 1029 30.39 858 25.34 3.1 37.6 47 -7 19.3
16:45 1029 30.39 858 25.34 3 37.4 50 -6.3 20.6
16:50 1029 30.39 858 25.34 2.8 37 48 -7.1 19.2
16:55 1029 30.39 858 25.34 2.5 36.6 48 -7.4 18.8
17:00 1029 30.39 858 25.34 2.5 36.4 48 -7.6 18.3
17:05 1029 30.39 858 25.34 2.4 36.3 49 -7.2 19
17:10 1029 30.39 858 25.34 2.4 36.3 46 -8 17.7
17:15 1029 30.39 858 25.34 2.4 36.3 46 -8.2 17.3
17:20 1029 30.39 858 25.34 2.5 36.4 47 -7.9 17.9
17:25 1029 30.39 858 25.34 2.4 36.4 46 -8 17.6
17:30 1029 30.39 858 25.34 2.4 36.3 47 -7.8 17.9
17:35 1029 30.39 858 25.34 2.4 36.3 48 -7.5 18.5
17:40 1029 30.39 858 25.34 2.3 36.1 49 -7.3 18.9
17:45 1029 30.39 858 25.34 2.3 36.1 52 -6.6 20.1
17:50 1029 30.39 858 25.34 2.1 35.7 50 -7.2 19
17:55 1029 30.39 858 25.34 2.2 35.9 49 -7.4 18.6
18:00 1029 30.39 858 25.34 2.3 36.1 51 -6.8 19.7
18:05 1029 30.39 858 25.34 2.2 36 49 -7.4 18.7
18:10 1029 30.39 858 25.34 2.3 36.1 48 -7.6 18.4
18:15 1029 30.39 858 25.34 2.4 36.2 47 -7.9 17.8
18:20 1029 30.39 858 25.34 2.3 36.2 47 -7.9 17.7
18:25 1029 30.39 858 25.34 2.4 36.2 44 -8.6 16.5
18:30 1029 30.39 858 25.34 2.4 36.3 45 -8.4 16.8
18:35 1029 30.39 858 25.34 2.4 36.3 45 -8.5 16.8
18:40 1029 30.39 858 25.34 2.4 36.3 46 -8.1 17.4
18:45 1029 30.39 858 25.34 2.4 36.3 45 -8.3 17.1
18:50 1029 30.39 858 25.34 2.3 36.1 45 -8.4 16.8
18:55 1029 30.39 858 25.34 2.3 36.1 46 -8.2 17.3
19:00 1029 30.39 858 25.34 2.2 36 47 -7.9 17.7
19:05 1029 30.39 858 25.34 2.2 35.9 47 -8 17.5
19:10 1029 30.39 858 25.34 2.1 35.7 46 -8.3 17
19:15 1029 30.39 858 25.34 2 35.6 46 -8.4 16.9
19:20 1029 30.39 858 25.34 2 35.7 46 -8.3 17
19:25 1028 30.36 858 25.34 2.1 35.7 46 -8.5 16.8
19:30 1029 30.39 858 25.34 2 35.7 47 -8.3 17.1
19:35 1028 30.36 858 25.34 2 35.6 45 -8.7 16.4
19:40 1029 30.39 858 25.34 2 35.6 46 -8.5 16.7
19:45 1029 30.39 858 25.34 2 35.5 50 -7.5 18.6
19:50 1028 30.36 858 25.34 1.6 34.9 49 -7.9 17.7
19:55 1028 30.36 858 25.34 1.4 34.6 52 -7.5 18.5
20:00 1028 30.36 858 25.34 1.4 34.5 52 -7.4 18.6
20:05 1028 30.36 858 25.34 1.2 34.2 54 -7.2 19.1
20:10 1028 30.36 857 25.31 1.4 34.6 50 -8 17.7
20:15 1028 30.36 857 25.31 1.2 34.2 51 -7.8 17.9
20:20 1028 30.36 857 25.31 1.1 34 51 -7.9 17.8
20:25 1028 30.36 857 25.31 1.6 34.8 48 -8.3 17.1
20:30 1028 30.36 857 25.31 1.8 35.3 48 -7.9 17.8
20:35 1028 30.36 857 25.31 1.9 35.3 47 -8.2 17.3
20:40 1028 30.36 857 25.31 1.9 35.4 47 -8.2 17.3
20:45 1028 30.36 857 25.31 1.9 35.4 48 -8.1 17.4
20:50 1028 30.36 857 25.31 1.7 35.1 49 -7.9 17.8
20:55 1028 30.36 857 25.31 1.7 35.1 49 -7.9 17.7
21:00 1028 30.36 857 25.31 1.4 34.6 53 -7.1 19.2
21:05 1028 30.36 857 25.31 0.8 33.5 55 -7.3 18.9
21:10 1028 30.36 857 25.31 0.8 33.4 53 -7.7 18.1
21:15 1028 30.36 857 25.31 1 33.8 51 -8 17.7
21:20 1028 30.36 857 25.31 1 33.8 52 -7.7 18.1
21:25 1028 30.36 857 25.31 0.8 33.5 54 -7.5 18.5
21:30 1028 30.36 857 25.31 0.6 33.1 52 -8.1 17.4
21:35 1028 30.36 857 25.31 0.8 33.5 55 -7.3 18.8
21:40 1028 30.36 857 25.31 0.5 32.8 57 -7.1 19.3
21:45 1028 30.36 857 25.31 0.6 33 55 -7.5 18.4
21:50 1028 30.36 857 25.31 0.6 33.1 55 -7.4 18.6
21:55 1028 30.36 857 25.31 0.6 33 57 -7 19.4
22:00 1028 30.36 857 25.31 0.4 32.7 60 -6.6 20.1
22:05 1028 30.36 857 25.31 0.5 32.9 57 -7.1 19.3
22:10 1028 30.36 857 25.31 0.5 33 58 -6.7 19.9
22:15 1028 30.36 857 25.31 0.5 32.9 56 -7.2 19
22:20 1028 30.36 857 25.31 0.6 33.1 59 -6.5 20.2
22:25 1028 30.36 857 25.31 0.4 32.7 58 -7 19.4
22:30 1028 30.36 857 25.31 0.4 32.8 60 -6.5 20.2
22:35 1028 30.36 857 25.31 0.4 32.8 60 -6.5 20.2
22:40 1028 30.36 857 25.31 0.5 32.9 60 -6.4 20.4
22:45 1028 30.36 857 25.31 0.5 33 61 -6.1 21.1
22:50 1028 30.36 857 25.31 0.6 33.1 62 -5.9 21.4
22:55 1027 30.33 857 25.31 0.6 33.1 61 -6 21.2
23:00 1027 30.33 857 25.31 0.5 32.9 62 -6 21.1
23:05 1027 30.33 857 25.31 0.6 33.1 61 -6 21.2
23:10 1027 30.33 857 25.31 0.5 32.8 62 -5.9 21.3
23:15 1027 30.33 857 25.31 0.4 32.7 64 -5.7 21.7
23:20 1027 30.33 857 25.31 0.5 32.9 64 -5.5 22.1
23:25 1027 30.33 856 25.28 0.5 33 63 -5.7 21.7
23:30 1027 30.33 856 25.28 0.6 33.1 63 -5.6 22
23:35 1027 30.33 856 25.28 0.6 33.1 63 -5.6 21.9
23:40 1027 30.33 856 25.28 0.5 32.9 62 -5.8 21.5
23:45 1027 30.33 856 25.28 0.5 32.9 62 -6 21.2
23:50 1027 30.33 856 25.28 0.5 32.9 63 -5.7 21.7
23:55 1027 30.33 856 25.28 0.4 32.7 64 -5.7 21.8
24:00 1027 30.33 856 25.28 0.3 32.5 64 -5.9 21.5